createdAt,value
2018-10-18T00:01:33.003Z,17.40
2018-10-18T00:04:02.297Z,18.87
2018-10-18T00:06:31.552Z,17.92
2018-10-18T00:09:00.785Z,17.17
2018-10-18T00:11:29.998Z,17.65
2018-10-18T00:13:59.255Z,17.30
2018-10-18T00:16:28.451Z,17.77
2018-10-18T00:18:57.714Z,19.10
2018-10-18T00:21:26.941Z,18.82
2018-10-18T00:23:56.183Z,17.42
2018-10-18T00:26:25.386Z,17.95
2018-10-18T00:28:54.570Z,17.90
2018-10-18T00:31:23.778Z,16.93
2018-10-18T00:33:52.996Z,18.48
2018-10-18T00:36:22.219Z,18.25
2018-10-18T00:38:51.428Z,18.00
2018-10-18T00:41:20.641Z,17.48
2018-10-18T00:43:49.830Z,18.32
2018-10-18T00:46:19.091Z,18.65
2018-10-18T00:48:48.372Z,17.45
2018-10-18T00:51:17.608Z,18.32
2018-10-18T00:53:46.818Z,18.20
2018-10-18T00:56:16.110Z,17.27
2018-10-18T00:58:45.259Z,17.45
2018-10-18T01:01:14.531Z,17.50
2018-10-18T01:03:43.727Z,18.75
2018-10-18T01:06:13.239Z,17.37
2018-10-18T01:08:42.343Z,16.90
2018-10-18T01:11:11.562Z,17.12
2018-10-18T01:13:40.747Z,17.32
2018-10-18T01:16:09.940Z,17.00
2018-10-18T01:18:39.155Z,16.87
2018-10-18T01:21:08.346Z,19.23
2018-10-18T01:23:37.590Z,17.50
2018-10-18T01:26:06.881Z,17.45
2018-10-18T01:28:36.015Z,18.00
2018-10-18T01:31:07.264Z,17.12
2018-10-18T01:33:36.496Z,17.50
2018-10-18T01:36:05.878Z,16.67
2018-10-18T01:38:35.023Z,18.57
2018-10-18T01:41:04.231Z,16.73
2018-10-18T01:43:33.580Z,18.73
2018-10-18T01:46:02.791Z,18.30
2018-10-18T01:48:32.035Z,16.97
2018-10-18T01:51:01.235Z,18.02
2018-10-18T01:53:30.451Z,17.60
2018-10-18T01:55:59.746Z,16.87
2018-10-18T01:58:28.958Z,18.02
2018-10-18T02:00:58.191Z,18.30
2018-10-18T02:03:27.401Z,18.62
2018-10-18T02:05:56.630Z,17.70
2018-10-18T02:08:25.859Z,18.70
2018-10-18T02:10:55.057Z,18.77
2018-10-18T02:13:24.296Z,16.90
2018-10-18T02:15:53.562Z,18.25
2018-10-18T02:18:22.785Z,17.17
2018-10-18T02:20:51.980Z,18.27
2018-10-18T02:23:21.286Z,18.50
2018-10-18T02:25:50.483Z,18.48
2018-10-18T02:28:19.702Z,18.07
2018-10-18T02:30:48.906Z,18.12
2018-10-18T02:33:18.194Z,19.07
2018-10-18T02:35:47.421Z,17.98
2018-10-18T02:38:16.654Z,17.92
2018-10-18T02:40:45.851Z,17.73
2018-10-18T02:43:15.101Z,17.73
2018-10-18T02:45:44.320Z,18.00
2018-10-18T02:48:13.583Z,16.82
2018-10-18T02:50:42.783Z,15.98
2018-10-18T02:53:12.010Z,17.23
2018-10-18T02:55:41.211Z,17.85
2018-10-18T02:58:10.519Z,17.55
2018-10-18T03:00:39.721Z,18.35
2018-10-18T03:03:08.922Z,18.15
2018-10-18T03:05:38.105Z,18.85
2018-10-18T03:08:07.358Z,17.40
2018-10-18T03:10:36.604Z,18.65
2018-10-18T03:13:05.962Z,19.17
2018-10-18T03:15:35.162Z,17.52
2018-10-18T03:18:04.678Z,17.48
2018-10-18T03:20:33.853Z,18.82
2018-10-18T03:23:03.063Z,18.25
2018-10-18T03:25:32.267Z,17.85
2018-10-18T03:28:01.526Z,17.12
2018-10-18T03:30:30.702Z,18.42
2018-10-18T03:32:59.901Z,18.55
2018-10-18T03:35:29.110Z,19.37
2018-10-18T03:37:58.328Z,19.95
2018-10-18T03:40:27.511Z,18.15
2018-10-18T03:42:56.702Z,17.12
2018-10-18T03:45:26.215Z,18.85
2018-10-18T03:47:55.697Z,18.42
2018-10-18T03:50:24.893Z,18.27
2018-10-18T03:52:54.186Z,17.92
2018-10-18T03:55:23.354Z,18.12
2018-10-18T03:57:52.539Z,18.25
2018-10-18T04:00:21.779Z,17.80
2018-10-18T04:02:50.971Z,17.05
2018-10-18T04:05:20.158Z,18.40
2018-10-18T04:07:49.339Z,18.42
2018-10-18T04:10:18.503Z,17.35
2018-10-18T04:12:47.718Z,18.30
2018-10-18T04:15:16.871Z,17.95
2018-10-18T04:17:46.085Z,17.62
2018-10-18T04:20:15.256Z,17.85
2018-10-18T04:22:44.475Z,18.07
2018-10-18T04:25:13.734Z,17.10
2018-10-18T04:27:42.975Z,17.27
2018-10-18T04:30:12.264Z,16.73
2018-10-18T04:32:41.447Z,17.35
2018-10-18T04:35:10.630Z,18.20
2018-10-18T04:37:39.820Z,18.50
2018-10-18T04:40:09.026Z,17.70
2018-10-18T04:42:38.183Z,17.92
2018-10-18T04:45:08.691Z,19.02
2018-10-18T04:47:37.962Z,17.92
2018-10-18T04:50:08.352Z,17.15
2018-10-18T04:52:37.522Z,17.12
2018-10-18T04:55:06.771Z,16.75
2018-10-18T04:57:35.943Z,17.52
2018-10-18T05:00:05.851Z,16.57
2018-10-18T05:02:35.048Z,17.20
2018-10-18T05:05:21.559Z,17.02
2018-10-18T05:07:50.755Z,16.67
2018-10-18T05:10:19.963Z,16.00
2018-10-18T05:12:49.217Z,16.65
2018-10-18T05:15:18.341Z,16.93
2018-10-18T05:17:47.524Z,16.32
2018-10-18T05:20:16.716Z,17.52
2018-10-18T05:22:45.874Z,17.85
2018-10-18T05:25:15.190Z,17.92
2018-10-18T05:27:44.284Z,18.00
2018-10-18T05:30:13.499Z,19.40
2018-10-18T05:32:42.659Z,19.45
2018-10-18T05:35:11.877Z,19.07
2018-10-18T05:37:41.106Z,19.27
2018-10-18T05:40:10.282Z,19.75
2018-10-18T05:42:39.462Z,20.97
2018-10-18T05:45:08.919Z,19.15
2018-10-18T05:47:38.443Z,18.90
2018-10-18T05:50:08.344Z,18.98
2018-10-18T05:52:37.660Z,17.87
2018-10-18T05:55:08.158Z,18.50
2018-10-18T05:57:37.271Z,19.27
2018-10-18T06:00:10.532Z,19.00
2018-10-18T06:02:40.252Z,19.87
2018-10-18T06:05:10.072Z,20.20
2018-10-18T06:07:39.256Z,21.07
2018-10-18T06:10:26.497Z,20.15
2018-10-18T06:12:55.627Z,20.30
2018-10-18T06:15:24.871Z,20.52
2018-10-18T06:17:54.075Z,18.77
2018-10-18T06:20:23.278Z,18.37
2018-10-18T06:22:52.519Z,19.55
2018-10-18T06:25:21.677Z,21.10
2018-10-18T06:27:50.851Z,21.23
2018-10-18T06:30:20.481Z,20.72
2018-10-18T06:32:49.735Z,20.25
2018-10-18T06:35:18.951Z,17.98
2018-10-18T06:37:48.132Z,17.67
2018-10-18T06:40:18.190Z,17.23
2018-10-18T06:42:47.359Z,18.62
2018-10-18T06:45:17.813Z,18.40
2018-10-18T06:47:47.315Z,18.15
2018-10-18T06:50:19.788Z,18.45
2018-10-18T06:52:49.578Z,18.85
2018-10-18T06:55:18.813Z,18.10
2018-10-18T06:57:47.979Z,18.85
2018-10-18T07:00:24.291Z,18.57
2018-10-18T07:02:53.643Z,16.67
2018-10-18T07:05:22.836Z,18.30
2018-10-18T07:07:52.019Z,18.60
2018-10-18T07:10:21.220Z,18.23
2018-10-18T07:12:50.388Z,17.48
2018-10-18T07:15:19.591Z,18.57
2018-10-18T07:17:48.874Z,17.92
2018-10-18T07:20:18.004Z,18.95
2018-10-18T07:22:47.176Z,18.35
2018-10-18T07:25:16.697Z,20.45
2018-10-18T07:27:45.883Z,20.32
2018-10-18T07:30:15.737Z,19.07
2018-10-18T07:32:44.852Z,19.12
2018-10-18T07:35:14.835Z,17.92
2018-10-18T07:37:43.966Z,19.52
2018-10-18T07:40:14.707Z,18.42
2018-10-18T07:42:43.938Z,19.67
2018-10-18T07:45:13.931Z,20.37
2018-10-18T07:47:43.802Z,19.57
2018-10-18T07:50:13.467Z,20.35
2018-10-18T07:52:42.651Z,20.08
2018-10-18T07:55:12.023Z,20.20
2018-10-18T07:57:41.224Z,19.75
2018-10-18T08:00:13.150Z,20.27
2018-10-18T08:02:42.887Z,19.32
2018-10-18T08:05:12.554Z,20.60
2018-10-18T08:07:41.883Z,20.70
2018-10-18T08:10:15.712Z,22.13
2018-10-18T08:12:44.902Z,22.48
2018-10-18T08:15:15.337Z,22.05
2018-10-18T08:17:45.180Z,23.18
2018-10-18T08:20:14.918Z,22.05
2018-10-18T08:22:44.472Z,23.67
2018-10-18T08:25:13.739Z,22.62
2018-10-18T08:27:42.994Z,22.07
2018-10-18T08:30:13.597Z,22.17
2018-10-18T08:32:42.820Z,22.02
2018-10-18T08:35:12.904Z,22.70
2018-10-18T08:37:42.203Z,22.67
2018-10-18T08:40:11.422Z,22.87
2018-10-18T08:42:40.631Z,23.55
2018-10-18T08:45:10.836Z,23.70
2018-10-18T08:47:40.019Z,23.18
2018-10-18T08:50:10.855Z,24.43
2018-10-18T08:52:40.151Z,23.55
2018-10-18T08:55:12.094Z,25.65
2018-10-18T08:57:41.499Z,25.48
2018-10-18T09:00:11.849Z,25.35
2018-10-18T09:02:42.044Z,26.62
2018-10-18T09:05:11.443Z,25.15
2018-10-18T09:07:40.609Z,25.35
2018-10-18T09:10:09.880Z,25.70
2018-10-18T09:12:39.059Z,25.92
2018-10-18T09:15:09.277Z,26.20
2018-10-18T09:17:38.768Z,28.47
2018-10-18T09:20:08.179Z,27.35
2018-10-18T09:22:37.776Z,28.27
2018-10-18T09:25:07.954Z,28.10
2018-10-18T09:27:37.289Z,29.80
2018-10-18T09:30:08.877Z,29.98
2018-10-18T09:32:38.089Z,29.80
2018-10-18T09:35:07.402Z,28.15
2018-10-18T09:37:36.603Z,31.60
2018-10-18T09:40:07.328Z,29.15
2018-10-18T09:42:36.531Z,29.30
2018-10-18T09:45:07.633Z,30.15
2018-10-18T09:47:37.026Z,31.77
2018-10-18T09:50:06.251Z,31.60
2018-10-18T09:52:35.459Z,37.23
2018-10-18T09:55:05.576Z,37.30
2018-10-18T09:57:34.741Z,38.17
2018-10-18T10:00:04.122Z,39.53
2018-10-18T10:02:38.759Z,38.35
2018-10-18T10:05:07.990Z,39.70
2018-10-18T10:07:37.206Z,42.78
2018-10-18T10:10:06.414Z,41.35
2018-10-18T10:12:35.617Z,40.50
2018-10-18T10:15:05.598Z,40.88
2018-10-18T10:17:34.963Z,40.28
2018-10-18T10:20:04.160Z,39.95
2018-10-18T10:22:33.363Z,40.80
2018-10-18T10:25:04.737Z,41.13
2018-10-18T10:27:33.962Z,38.42
2018-10-18T10:30:03.177Z,35.30
2018-10-18T10:32:32.405Z,37.45
2018-10-18T10:35:07.721Z,37.73
2018-10-18T10:37:36.915Z,37.05
2018-10-18T10:40:07.784Z,37.35
2018-10-18T10:42:36.912Z,34.95
2018-10-18T10:45:07.959Z,34.88
2018-10-18T10:47:37.138Z,33.58
2018-10-18T10:50:06.786Z,36.15
2018-10-18T10:52:36.142Z,34.35
2018-10-18T10:55:06.143Z,32.35
2018-10-18T10:57:35.466Z,32.98
2018-10-18T11:00:04.795Z,30.65
2018-10-18T11:02:34.088Z,31.33
2018-10-18T11:05:03.445Z,33.58
2018-10-18T11:07:32.658Z,34.85
2018-10-18T11:10:01.917Z,32.83
2018-10-18T11:12:31.499Z,32.85
2018-10-18T11:15:01.324Z,32.58
2018-10-18T11:17:30.605Z,32.85
2018-10-18T11:19:59.904Z,31.52
2018-10-18T11:22:30.611Z,33.50
2018-10-18T11:24:59.919Z,32.70
2018-10-18T11:27:29.149Z,31.82
2018-10-18T11:29:58.360Z,31.55
2018-10-18T11:32:27.581Z,29.92
2018-10-18T11:34:56.824Z,32.38
2018-10-18T11:37:26.090Z,31.82
2018-10-18T11:39:55.513Z,31.07
2018-10-18T11:42:24.809Z,31.50
2018-10-18T11:44:54.086Z,32.13
2018-10-18T11:47:23.370Z,33.88
2018-10-18T11:49:52.651Z,33.63
2018-10-18T11:52:21.896Z,33.23
2018-10-18T11:54:51.144Z,32.25
2018-10-18T11:57:20.379Z,32.25
2018-10-18T11:59:49.686Z,33.35
2018-10-18T12:02:18.957Z,32.40
2018-10-18T12:04:48.152Z,31.65
2018-10-18T12:07:17.408Z,32.85
2018-10-18T12:09:46.614Z,30.82
2018-10-18T12:12:15.836Z,30.68
2018-10-18T12:14:45.028Z,31.12
2018-10-18T12:17:14.312Z,32.13
2018-10-18T12:19:43.514Z,31.60
2018-10-18T12:22:12.953Z,31.65
2018-10-18T12:24:42.176Z,32.85
2018-10-18T12:27:11.396Z,31.40
2018-10-18T12:29:40.596Z,30.60
2018-10-18T12:32:09.917Z,30.62
2018-10-18T12:34:39.107Z,32.08
2018-10-18T12:37:08.337Z,31.27
2018-10-18T12:39:37.655Z,32.85
2018-10-18T12:42:06.971Z,34.03
2018-10-18T12:44:38.049Z,33.02
2018-10-18T12:47:09.020Z,33.08
2018-10-18T12:49:39.009Z,32.30
2018-10-18T12:52:09.596Z,31.30
2018-10-18T12:54:39.144Z,31.07
2018-10-18T12:57:10.084Z,32.98
2018-10-18T12:59:39.303Z,32.80
2018-10-18T13:02:08.896Z,33.53
2018-10-18T13:04:38.396Z,33.95
2018-10-18T13:07:07.675Z,33.15
2018-10-18T13:09:36.885Z,33.90
2018-10-18T13:12:06.234Z,38.02
2018-10-18T13:14:35.413Z,37.90
2018-10-18T13:17:04.835Z,39.05
2018-10-18T13:19:34.068Z,39.50
2018-10-18T13:22:03.281Z,38.02
2018-10-18T13:24:32.480Z,35.73
2018-10-18T13:27:01.713Z,36.68
2018-10-18T13:29:30.931Z,36.88
2018-10-18T13:32:00.301Z,38.65
2018-10-18T13:34:29.466Z,36.00
2018-10-18T13:36:58.708Z,36.25
2018-10-18T13:39:27.939Z,36.55
2018-10-18T13:41:57.292Z,34.50
2018-10-18T13:44:26.519Z,36.33
2018-10-18T13:46:55.744Z,33.20
2018-10-18T13:49:24.969Z,36.23
2018-10-18T13:51:54.189Z,35.80
2018-10-18T13:54:23.506Z,37.67
2018-10-18T13:56:52.759Z,38.80
2018-10-18T13:59:39.061Z,39.95
2018-10-18T14:02:08.296Z,38.92
2018-10-18T14:04:37.531Z,38.13
2018-10-18T14:07:06.747Z,39.73
2018-10-18T14:09:36.076Z,37.98
2018-10-18T14:12:05.657Z,38.02
2018-10-18T14:14:34.902Z,38.35
2018-10-18T14:17:04.182Z,37.98
2018-10-18T14:19:33.399Z,38.33
2018-10-18T14:22:02.627Z,38.53
2018-10-18T14:24:31.925Z,38.48
2018-10-18T14:27:01.129Z,37.42
2018-10-18T14:29:30.366Z,43.58
2018-10-18T14:31:59.586Z,46.58
2018-10-18T14:34:28.842Z,104.55
2018-10-18T14:36:58.068Z,105.20
2018-10-18T14:39:27.318Z,112.42
2018-10-18T14:41:56.550Z,84.47
2018-10-18T14:44:25.844Z,51.00
2018-10-18T14:46:55.152Z,41.15
2018-10-18T14:49:24.391Z,41.80
2018-10-18T14:51:53.661Z,38.75
2018-10-18T14:54:23.665Z,40.00
2018-10-18T14:56:52.905Z,38.55
2018-10-18T14:59:28.477Z,38.63
2018-10-18T15:01:57.772Z,38.83
2018-10-18T15:04:27.066Z,40.00
2018-10-18T15:06:56.349Z,41.73
2018-10-18T15:09:25.630Z,41.48
2018-10-18T15:11:54.842Z,40.25
2018-10-18T15:14:24.068Z,41.30
2018-10-18T15:16:53.302Z,44.08
2018-10-18T15:19:22.595Z,44.13
2018-10-18T15:21:51.825Z,45.08
2018-10-18T15:24:21.090Z,45.03
2018-10-18T15:26:50.333Z,48.15
2018-10-18T15:29:19.680Z,49.00
2018-10-18T15:31:48.935Z,49.10
2018-10-18T15:34:18.175Z,49.88
2018-10-18T15:36:47.595Z,50.08
2018-10-18T15:39:17.055Z,50.70
2018-10-18T15:41:46.170Z,52.75
2018-10-18T15:44:15.515Z,52.33
2018-10-18T15:46:44.693Z,54.63
2018-10-18T15:49:13.909Z,54.15
2018-10-18T15:51:43.601Z,53.30
2018-10-18T15:54:12.910Z,54.50
2018-10-18T15:56:42.104Z,55.38
2018-10-18T15:59:11.360Z,53.42
2018-10-18T16:01:40.609Z,53.85
2018-10-18T16:04:09.846Z,53.83
2018-10-18T16:06:39.074Z,54.48
2018-10-18T16:09:11.314Z,53.92
2018-10-18T16:11:40.642Z,51.73
2018-10-18T16:14:09.896Z,56.53
2018-10-18T16:16:39.118Z,51.60
2018-10-18T16:19:08.377Z,47.93
2018-10-18T16:21:37.581Z,46.33
2018-10-18T16:24:06.988Z,46.75
2018-10-18T16:26:36.226Z,52.38
2018-10-18T16:29:05.676Z,51.18
2018-10-18T16:31:34.858Z,51.92
2018-10-18T16:34:04.085Z,53.63
2018-10-18T16:36:33.302Z,54.42
2018-10-18T16:39:02.615Z,50.95
2018-10-18T16:41:31.987Z,52.35
2018-10-18T16:44:01.163Z,49.53
2018-10-18T16:46:30.420Z,48.95
2018-10-18T16:48:59.648Z,49.65
2018-10-18T16:51:28.866Z,52.35
2018-10-18T16:54:08.444Z,53.08
2018-10-18T16:56:37.604Z,53.83
2018-10-18T16:59:06.850Z,52.60
2018-10-18T17:01:36.087Z,50.83
2018-10-18T17:04:05.644Z,52.98
2018-10-18T17:06:34.807Z,53.55
2018-10-18T17:09:04.997Z,53.28
2018-10-18T17:11:34.308Z,53.13
2018-10-18T17:14:03.556Z,52.98
2018-10-18T17:16:32.728Z,49.73
2018-10-18T17:19:01.949Z,50.45
2018-10-18T17:21:31.157Z,47.08
2018-10-18T17:24:00.466Z,48.60
2018-10-18T17:26:29.671Z,45.50
2018-10-18T17:28:58.917Z,43.55
2018-10-18T17:31:28.152Z,44.65
2018-10-18T17:33:57.614Z,45.00
2018-10-18T17:36:26.957Z,45.43
2018-10-18T17:38:57.032Z,45.30
2018-10-18T17:41:26.239Z,45.88
2018-10-18T17:43:55.523Z,45.30
2018-10-18T17:46:24.727Z,44.95
2018-10-18T17:48:53.922Z,44.00
2018-10-18T17:51:23.186Z,44.00
2018-10-18T17:53:52.389Z,46.63
2018-10-18T17:56:21.657Z,40.17
2018-10-18T17:58:50.832Z,39.00
2018-10-18T18:01:20.243Z,45.80
2018-10-18T18:03:49.424Z,38.05
2018-10-18T18:06:18.894Z,37.88
2018-10-18T18:08:47.909Z,41.45
2018-10-18T18:11:17.150Z,37.63
2018-10-18T18:13:47.439Z,36.08
2018-10-18T18:16:16.673Z,37.75
2018-10-18T18:18:45.873Z,34.53
2018-10-18T18:21:15.104Z,36.63
2018-10-18T18:23:44.322Z,38.15
2018-10-18T18:26:13.563Z,39.15
2018-10-18T18:28:42.760Z,37.33
2018-10-18T18:31:12.205Z,35.70
2018-10-18T18:33:41.535Z,39.15
2018-10-18T18:36:10.760Z,37.23
2018-10-18T18:38:39.961Z,37.17
2018-10-18T18:41:09.173Z,38.98
2018-10-18T18:43:38.409Z,38.83
2018-10-18T18:46:07.657Z,39.20
2018-10-18T18:48:37.131Z,38.75
2018-10-18T18:51:06.499Z,39.60
2018-10-18T18:53:35.804Z,40.08
2018-10-18T18:56:05.269Z,37.85
2018-10-18T18:58:34.463Z,39.00
2018-10-18T19:01:03.696Z,39.53
2018-10-18T19:03:32.917Z,38.55
2018-10-18T19:06:02.154Z,38.63
2018-10-18T19:08:31.360Z,43.02
2018-10-18T19:11:00.657Z,41.63
2018-10-18T19:13:29.940Z,45.75
2018-10-18T19:15:59.106Z,41.33
2018-10-18T19:18:28.434Z,40.48
2018-10-18T19:20:57.694Z,39.30
2018-10-18T19:23:26.895Z,40.50
2018-10-18T19:25:56.132Z,38.33
2018-10-18T19:28:25.376Z,38.80
2018-10-18T19:30:54.584Z,38.83
2018-10-18T19:33:23.816Z,40.20
2018-10-18T19:35:53.047Z,38.85
2018-10-18T19:38:22.296Z,39.35
2018-10-18T19:40:51.504Z,38.25
2018-10-18T19:43:20.712Z,39.30
2018-10-18T19:45:50.146Z,38.08
2018-10-18T19:48:19.351Z,38.33
2018-10-18T19:50:48.571Z,37.63
2018-10-18T19:53:17.769Z,35.15
2018-10-18T19:55:46.985Z,35.52
2018-10-18T19:58:16.339Z,35.25
2018-10-18T20:00:45.393Z,37.42
2018-10-18T20:03:14.589Z,34.80
2018-10-18T20:05:43.831Z,36.25
2018-10-18T20:08:13.470Z,35.23
2018-10-18T20:10:42.705Z,34.27
2018-10-18T20:13:11.889Z,34.00
2018-10-18T20:15:42.500Z,34.58
2018-10-18T20:18:11.881Z,32.60
2018-10-18T20:20:40.948Z,32.13
2018-10-18T20:23:10.150Z,33.42
2018-10-18T20:25:39.458Z,33.55
2018-10-18T20:28:08.608Z,33.88
2018-10-18T20:30:37.816Z,32.88
2018-10-18T20:33:07.067Z,32.95
2018-10-18T20:35:36.299Z,32.98
2018-10-18T20:38:05.478Z,33.23
2018-10-18T20:40:34.701Z,33.15
2018-10-18T20:43:03.884Z,32.40
2018-10-18T20:45:37.549Z,33.33
2018-10-18T20:48:06.946Z,31.33
2018-10-18T20:50:35.982Z,32.70
2018-10-18T20:53:05.274Z,34.95
2018-10-18T20:55:34.473Z,37.75
2018-10-18T20:58:03.672Z,31.50
2018-10-18T21:00:33.005Z,32.58
2018-10-18T21:03:02.215Z,31.60
2018-10-18T21:05:31.432Z,31.95
2018-10-18T21:08:00.641Z,31.23
2018-10-18T21:10:29.865Z,31.87
2018-10-18T21:12:59.120Z,31.10
2018-10-18T21:15:28.333Z,30.00
2018-10-18T21:17:57.569Z,31.27
2018-10-18T21:20:26.797Z,29.65
2018-10-18T21:22:56.058Z,30.95
2018-10-18T21:25:25.248Z,29.20
2018-10-18T21:27:54.549Z,29.72
2018-10-18T21:30:23.691Z,30.77
2018-10-18T21:32:52.919Z,29.67
2018-10-18T21:35:22.115Z,29.15
2018-10-18T21:37:51.341Z,29.85
2018-10-18T21:40:20.540Z,28.27
2018-10-18T21:42:49.769Z,28.17
2018-10-18T21:45:19.167Z,28.12
2018-10-18T21:47:48.413Z,28.65
2018-10-18T21:50:17.660Z,27.25
2018-10-18T21:52:46.946Z,26.30
2018-10-18T21:55:16.177Z,27.40
2018-10-18T21:57:45.444Z,27.67
2018-10-18T22:00:15.897Z,27.17
2018-10-18T22:02:46.106Z,27.52
2018-10-18T22:05:15.926Z,26.90
2018-10-18T22:07:45.148Z,26.20
2018-10-18T22:10:14.640Z,25.35
2018-10-18T22:12:43.863Z,25.17
2018-10-18T22:15:13.135Z,24.63
2018-10-18T22:17:42.365Z,24.50
2018-10-18T22:20:11.575Z,25.15
2018-10-18T22:22:40.793Z,23.87
2018-10-18T22:25:10.220Z,23.92
2018-10-18T22:27:39.474Z,22.02
2018-10-18T22:30:09.128Z,23.00
2018-10-18T22:32:38.545Z,21.48
2018-10-18T22:35:07.787Z,23.12
2018-10-18T22:37:37.000Z,23.27
2018-10-18T22:40:07.356Z,23.98
2018-10-18T22:42:36.602Z,23.75
2018-10-18T22:45:07.377Z,23.45
2018-10-18T22:47:36.525Z,24.70
2018-10-18T22:50:05.726Z,23.40
2018-10-18T22:52:34.958Z,24.55
2018-10-18T22:55:04.160Z,23.10
2018-10-18T22:57:33.394Z,22.30
2018-10-18T23:00:02.601Z,21.85
2018-10-18T23:02:31.845Z,24.52
2018-10-18T23:05:01.070Z,27.82
2018-10-18T23:07:30.286Z,29.18
2018-10-18T23:09:59.562Z,24.85
2018-10-18T23:12:28.793Z,22.73
2018-10-18T23:14:58.035Z,27.82
2018-10-18T23:17:27.252Z,21.07
2018-10-18T23:19:56.436Z,21.68
2018-10-18T23:22:25.666Z,20.90
2018-10-18T23:24:54.861Z,18.95
2018-10-18T23:27:23.234Z,18.77
2018-10-18T23:29:52.444Z,18.12
2018-10-18T23:32:21.680Z,18.07
2018-10-18T23:34:50.887Z,17.60
2018-10-18T23:37:20.114Z,18.37
2018-10-18T23:39:49.321Z,18.45
2018-10-18T23:42:18.638Z,18.05
2018-10-18T23:44:47.848Z,17.17
2018-10-18T23:47:17.106Z,19.15
2018-10-18T23:49:46.317Z,18.02
2018-10-18T23:52:15.545Z,18.77
2018-10-18T23:54:44.766Z,17.12
2018-10-18T23:57:14.047Z,17.85
2018-10-18T23:59:43.207Z,16.15
